createdAt,value
2023-04-12T00:00:49.178Z,99798.03
2023-04-12T00:03:15.828Z,99797.69
2023-04-12T00:05:45.104Z,99809.22
2023-04-12T00:08:13.428Z,99802.81
2023-04-12T00:10:39.862Z,99795.69
2023-04-12T00:13:06.261Z,99794.91
2023-04-12T00:15:32.629Z,99798.47
2023-04-12T00:18:00.950Z,99807.59
2023-04-12T00:20:29.528Z,99811.16
2023-04-12T00:22:55.959Z,99817.94
2023-04-12T00:25:22.438Z,99810.78
2023-04-12T00:27:50.756Z,99808.00
2023-04-12T00:30:19.024Z,99818.72
2023-04-12T00:32:48.292Z,99826.66
2023-04-12T00:35:16.614Z,99813.16
2023-04-12T00:37:44.817Z,99806.03
2023-04-12T00:40:14.019Z,99795.69
2023-04-12T00:42:41.257Z,99788.13
2023-04-12T00:45:07.698Z,99776.63
2023-04-12T00:47:34.948Z,99774.63
2023-04-12T00:50:04.307Z,99777.81
2023-04-12T00:52:30.770Z,99772.72
2023-04-12T00:54:57.180Z,99777.03
2023-04-12T00:57:23.593Z,99777.03
2023-04-12T00:59:49.995Z,99780.25
2023-04-12T01:02:17.314Z,99778.69
2023-04-12T01:07:31.431Z,99782.66
2023-04-12T01:09:57.850Z,99781.88
2023-04-12T01:12:25.046Z,99781.47
2023-04-12T01:14:52.422Z,99778.69
2023-04-12T01:17:18.834Z,99787.41
2023-04-12T01:22:39.285Z,99786.63
2023-04-12T01:25:06.535Z,99801.66
2023-04-12T01:27:33.752Z,99814.00
2023-04-12T01:30:00.152Z,99807.66
2023-04-12T01:32:26.541Z,99802.88
2023-04-12T01:37:37.126Z,99804.44
2023-04-12T01:40:03.487Z,99807.22
2023-04-12T01:42:29.921Z,99808.44
2023-04-12T01:44:57.163Z,99802.09
2023-04-12T01:47:23.635Z,99804.09
2023-04-12T01:52:33.813Z,99799.72
2023-04-12T01:55:00.168Z,99793.38
2023-04-12T01:57:27.361Z,99794.97
2023-04-12T01:59:53.703Z,99792.59
2023-04-12T02:02:20.114Z,99783.03
2023-04-12T02:07:40.576Z,99785.03
2023-04-12T02:10:06.969Z,99775.91
2023-04-12T02:12:33.316Z,99779.81
2023-04-12T02:14:59.653Z,99779.06
2023-04-12T02:17:26.031Z,99770.34
2023-04-12T02:22:46.195Z,99779.81
2023-04-12T02:25:12.558Z,99780.59
2023-04-12T02:27:38.932Z,99771.91
2023-04-12T02:30:05.358Z,99778.28
2023-04-12T02:32:31.704Z,99769.94
2023-04-12T02:37:42.180Z,99777.47
2023-04-12T02:40:08.506Z,99785.41
2023-04-12T02:42:35.644Z,99785.81
2023-04-12T02:45:02.031Z,99790.19
2023-04-12T02:47:28.547Z,99794.97
2023-04-12T02:52:39.993Z,99792.59
2023-04-12T02:55:06.371Z,99798.16
2023-04-12T02:57:32.701Z,99802.50
2023-04-12T02:59:59.066Z,99792.59
2023-04-12T03:02:25.549Z,99800.94
2023-04-12T03:07:45.833Z,99796.94
2023-04-12T03:10:13.179Z,99796.53
2023-04-12T03:12:39.523Z,99793.38
2023-04-12T03:15:05.870Z,99799.72
2023-04-12T03:17:32.288Z,99796.94
2023-04-12T03:22:42.400Z,99799.72
2023-04-12T03:25:09.625Z,99802.09
2023-04-12T03:27:35.981Z,99801.66
2023-04-12T03:30:02.332Z,99813.56
2023-04-12T03:32:28.883Z,99805.22
2023-04-12T03:34:55.300Z,99800.09
2023-04-12T03:37:21.673Z,99805.66
2023-04-12T03:39:48.428Z,99793.31
2023-04-12T03:42:29.375Z,99798.09
2023-04-12T03:44:58.470Z,99792.53
2023-04-12T03:47:24.883Z,99802.88
2023-04-12T03:50:06.112Z,99797.75
2023-04-12T03:52:37.677Z,99800.53
2023-04-12T03:55:04.057Z,99809.66
2023-04-12T03:57:30.386Z,99806.88
2023-04-12T03:59:56.766Z,99809.66
2023-04-12T04:02:23.201Z,99804.88
2023-04-12T04:04:49.757Z,99808.44
2023-04-12T04:07:16.133Z,99805.66
2023-04-12T04:09:42.455Z,99810.44
2023-04-12T04:12:09.648Z,99804.44
2023-04-12T04:14:35.975Z,99803.25
2023-04-12T04:17:05.087Z,99802.81
2023-04-12T04:19:31.421Z,99800.47
2023-04-12T04:21:57.818Z,99810.78
2023-04-12T04:24:24.171Z,99808.81
2023-04-12T04:26:50.534Z,99803.25
2023-04-12T04:29:17.763Z,99808.00
2023-04-12T04:31:44.135Z,99807.22
2023-04-12T04:34:12.333Z,99817.94
2023-04-12T04:36:39.204Z,99811.59
2023-04-12T04:39:05.606Z,99823.50
2023-04-12T04:41:31.947Z,99830.25
2023-04-12T04:43:58.412Z,99828.28
2023-04-12T04:46:24.870Z,99836.19
2023-04-12T04:48:51.227Z,99836.53
2023-04-12T04:51:17.583Z,99838.50
2023-04-12T04:53:44.802Z,99839.38
2023-04-12T04:56:11.217Z,99846.13
2023-04-12T04:58:37.552Z,99845.28
2023-04-12T05:01:03.948Z,99840.09
2023-04-12T05:03:31.115Z,99840.88
2023-04-12T05:05:57.757Z,99840.47
2023-04-12T05:11:19.086Z,99844.84
2023-04-12T05:13:46.481Z,99844.03
2023-04-12T05:16:13.876Z,99845.97
2023-04-12T05:18:40.334Z,99855.13
2023-04-12T05:21:07.785Z,99855.13
2023-04-12T05:26:29.378Z,99848.34
2023-04-12T05:28:56.026Z,99852.72
2023-04-12T05:31:22.881Z,99850.72
2023-04-12T05:33:49.530Z,99846.72
2023-04-12T05:36:16.961Z,99848.66
2023-04-12T05:41:28.244Z,99845.84
2023-04-12T05:43:54.700Z,99842.31
2023-04-12T05:46:21.558Z,99843.50
2023-04-12T05:48:49.218Z,99835.16
2023-04-12T05:51:15.981Z,99844.66
2023-04-12T05:56:26.600Z,99845.84
2023-04-12T05:58:53.057Z,99847.44
2023-04-12T06:01:20.451Z,99842.66
2023-04-12T06:03:47.040Z,99841.47
2023-04-12T06:06:13.630Z,99847.22
2023-04-12T06:11:34.419Z,99854.91
2023-04-12T06:14:00.904Z,99857.47
2023-04-12T06:16:27.464Z,99859.63
2023-04-12T06:18:53.966Z,99847.38
2023-04-12T06:21:21.354Z,99856.56
2023-04-12T06:26:42.860Z,99847.13
2023-04-12T06:29:10.259Z,99856.91
2023-04-12T06:31:36.741Z,99858.28
2023-04-12T06:34:03.285Z,99861.16
2023-04-12T06:36:30.664Z,99862.78
2023-04-12T06:41:52.720Z,99863.19
2023-04-12T06:44:19.273Z,99861.16
2023-04-12T06:46:46.774Z,99867.06
2023-04-12T06:49:13.315Z,99868.56
2023-04-12T06:51:40.744Z,99868.13
2023-04-12T06:56:51.222Z,99869.50
2023-04-12T06:59:18.620Z,99871.06
2023-04-12T07:01:45.202Z,99865.56
2023-04-12T07:04:13.759Z,99874.25
2023-04-12T07:06:40.362Z,99880.22
2023-04-12T07:12:01.683Z,99886.63
2023-04-12T07:14:29.406Z,99884.59
2023-04-12T07:16:55.926Z,99895.75
2023-04-12T07:19:22.512Z,99891.34
2023-04-12T07:21:49.012Z,99900.50
2023-04-12T07:27:00.464Z,99881.00
2023-04-12T07:29:26.946Z,99883.00
2023-04-12T07:31:54.338Z,99877.47
2023-04-12T07:34:20.851Z,99879.47
2023-04-12T07:36:47.529Z,99882.63
2023-04-12T07:42:08.079Z,99870.69
2023-04-12T07:44:37.091Z,99871.09
2023-04-12T07:47:05.044Z,99870.75
2023-04-12T07:49:31.524Z,99877.88
2023-04-12T07:51:57.962Z,99869.06
2023-04-12T07:57:19.486Z,99880.66
2023-04-12T07:59:46.908Z,99878.59
2023-04-12T08:02:13.474Z,99876.53
2023-04-12T08:04:40.001Z,99877.25
2023-04-12T08:07:07.438Z,99881.59
2023-04-12T08:12:19.913Z,99890.28
2023-04-12T08:14:46.342Z,99888.72
2023-04-12T08:17:12.885Z,99889.97
2023-04-12T08:19:40.278Z,99885.09
2023-04-12T08:22:07.600Z,99885.66
2023-04-12T08:27:28.821Z,99887.31
2023-04-12T08:29:55.350Z,99889.72
2023-04-12T08:32:21.888Z,99883.47
2023-04-12T08:34:49.347Z,99888.19
2023-04-12T08:37:16.854Z,99906.22
2023-04-12T08:42:28.404Z,99907.88
2023-04-12T08:44:54.859Z,99914.38
2023-04-12T08:47:21.396Z,99906.44
2023-04-12T08:49:48.821Z,99900.66
2023-04-12T08:52:15.288Z,99904.75
2023-04-12T08:54:41.832Z,99902.50
2023-04-12T08:57:09.226Z,99886.47
2023-04-12T08:59:35.662Z,99859.28
2023-04-12T09:02:02.227Z,99853.91
2023-04-12T09:04:28.799Z,99848.91
2023-04-12T09:06:55.263Z,99862.72
2023-04-12T09:09:22.621Z,99849.63
2023-04-12T09:11:49.904Z,99856.19
2023-04-12T09:14:16.345Z,99866.81
2023-04-12T09:16:43.769Z,99864.44
2023-04-12T09:19:11.149Z,99860.03
2023-04-12T09:21:37.570Z,99852.31
2023-04-12T09:24:03.958Z,99862.84
2023-04-12T09:26:31.355Z,99866.34
2023-04-12T09:28:57.823Z,99865.09
2023-04-12T09:31:25.223Z,99860.34
2023-04-12T09:33:51.735Z,99860.91
2023-04-12T09:36:18.243Z,99863.59
2023-04-12T09:38:45.700Z,99859.50
2023-04-12T09:41:16.204Z,99856.13
2023-04-12T09:43:44.893Z,99847.63
2023-04-12T09:46:11.343Z,99851.91
2023-04-12T09:48:37.852Z,99855.91
2023-04-12T09:51:04.347Z,99857.84
2023-04-12T09:53:31.723Z,99854.50
2023-04-12T09:55:59.109Z,99852.66
2023-04-12T09:58:26.535Z,99851.75
2023-04-12T10:00:53.020Z,99844.16
2023-04-12T10:03:20.599Z,99849.28
2023-04-12T10:05:48.072Z,99846.22
2023-04-12T10:08:15.437Z,99854.25
2023-04-12T10:10:41.939Z,99844.31
2023-04-12T10:15:53.372Z,99859.41
2023-04-12T10:18:19.850Z,99859.00
2023-04-12T10:20:47.258Z,99863.06
2023-04-12T10:23:13.764Z,99853.44
2023-04-12T10:25:41.189Z,99856.59
2023-04-12T10:31:02.628Z,99862.56
2023-04-12T10:33:30.210Z,99867.75
2023-04-12T10:35:57.702Z,99860.22
2023-04-12T10:38:24.214Z,99866.50
2023-04-12T10:40:50.756Z,99867.28
2023-04-12T10:46:02.191Z,99858.91
2023-04-12T10:48:28.881Z,99848.69
2023-04-12T10:50:56.375Z,99853.78
2023-04-12T10:53:23.757Z,99850.22
2023-04-12T10:55:51.179Z,99847.81
2023-04-12T11:01:13.673Z,99848.66
2023-04-12T11:03:40.378Z,99845.47
2023-04-12T11:06:24.237Z,99846.22
2023-04-12T11:08:53.336Z,99843.91
2023-04-12T11:11:19.796Z,99836.31
2023-04-12T11:16:41.342Z,99831.00
2023-04-12T11:19:08.771Z,99827.72
2023-04-12T11:21:36.177Z,99817.78
2023-04-12T11:24:03.535Z,99825.28
2023-04-12T11:26:30.980Z,99821.28
2023-04-12T11:31:43.528Z,99812.44
2023-04-12T11:34:10.060Z,99812.56
2023-04-12T11:36:37.454Z,99808.06
2023-04-12T11:39:04.858Z,99807.97
2023-04-12T11:41:32.238Z,99802.44
2023-04-12T11:46:43.925Z,99800.03
2023-04-12T11:49:10.396Z,99795.63
2023-04-12T11:51:36.845Z,99789.22
2023-04-12T11:54:03.261Z,99789.66
2023-04-12T11:56:30.660Z,99784.88
2023-04-12T12:01:41.942Z,99785.84
2023-04-12T12:04:09.534Z,99776.31
2023-04-12T12:06:37.349Z,99783.16
2023-04-12T12:09:04.870Z,99770.34
2023-04-12T12:11:31.364Z,99771.63
2023-04-12T12:16:53.549Z,99757.38
2023-04-12T12:19:20.940Z,99754.66
2023-04-12T12:21:48.316Z,99748.78
2023-04-12T12:24:14.775Z,99737.53
2023-04-12T12:26:42.155Z,99741.00
2023-04-12T12:31:52.859Z,99723.44
2023-04-12T12:34:19.364Z,99729.69
2023-04-12T12:36:45.894Z,99728.78
2023-04-12T12:39:12.562Z,99722.94
2023-04-12T12:41:40.205Z,99732.78
2023-04-12T12:47:13.111Z,99723.69
2023-04-12T12:49:41.665Z,99729.19
2023-04-12T12:52:08.174Z,99719.72
2023-04-12T12:54:40.314Z,99727.25
2023-04-12T12:57:07.862Z,99727.69
2023-04-12T13:02:29.032Z,99714.63
2023-04-12T13:04:56.641Z,99713.50
2023-04-12T13:07:23.230Z,99709.06
2023-04-12T13:09:49.704Z,99709.41
2023-04-12T13:12:17.095Z,99703.50
2023-04-12T13:17:38.587Z,99700.84
2023-04-12T13:20:06.000Z,99701.31
2023-04-12T13:22:33.367Z,99696.66
2023-04-12T13:24:59.858Z,99693.88
2023-04-12T13:27:26.325Z,99694.50
2023-04-12T13:32:37.533Z,99684.59
2023-04-12T13:35:04.030Z,99681.34
2023-04-12T13:37:31.482Z,99684.88
2023-04-12T13:39:58.861Z,99681.06
2023-04-12T13:42:26.340Z,99679.00
2023-04-12T13:47:36.839Z,99672.56
2023-04-12T13:50:03.302Z,99684.06
2023-04-12T13:52:29.780Z,99676.91
2023-04-12T13:54:57.189Z,99670.66
2023-04-12T13:57:23.642Z,99672.53
2023-04-12T14:02:44.263Z,99667.09
2023-04-12T14:05:11.866Z,99671.75
2023-04-12T14:07:38.421Z,99668.84
2023-04-12T14:10:05.051Z,99669.75
2023-04-12T14:12:31.594Z,99669.31
2023-04-12T14:17:52.327Z,99662.75
2023-04-12T14:20:19.673Z,99671.50
2023-04-12T14:22:46.318Z,99663.53
2023-04-12T14:25:12.816Z,99670.00
2023-04-12T14:27:39.326Z,99667.63
2023-04-12T14:32:50.811Z,99660.22
2023-04-12T14:35:18.323Z,99663.41
2023-04-12T14:37:46.747Z,99665.72
2023-04-12T14:40:14.865Z,99667.31
2023-04-12T14:42:41.370Z,99661.22
2023-04-12T14:47:52.718Z,99669.59
2023-04-12T14:50:19.218Z,99657.63
2023-04-12T14:52:46.678Z,99658.78
2023-04-12T14:55:14.061Z,99663.81
2023-04-12T14:57:41.478Z,99664.22
2023-04-12T15:03:02.451Z,99671.94
2023-04-12T15:05:30.073Z,99672.56
2023-04-12T15:07:56.507Z,99670.06
2023-04-12T15:10:22.984Z,99666.75
2023-04-12T15:12:49.439Z,99673.81
2023-04-12T15:18:10.957Z,99673.59
2023-04-12T15:20:38.327Z,99672.91
2023-04-12T15:23:05.715Z,99667.97
2023-04-12T15:25:33.062Z,99660.75
2023-04-12T15:28:00.441Z,99660.66
2023-04-12T15:33:20.909Z,99660.22
2023-04-12T15:35:48.540Z,99661.75
2023-04-12T15:38:19.122Z,99654.66
2023-04-12T15:40:49.488Z,99657.75
2023-04-12T15:43:16.827Z,99653.34
2023-04-12T15:48:37.309Z,99655.09
2023-04-12T15:51:03.803Z,99652.41
2023-04-12T15:53:30.281Z,99652.00
2023-04-12T15:55:57.541Z,99644.38
2023-04-12T15:58:23.987Z,99642.63
2023-04-12T16:03:35.765Z,99637.75
2023-04-12T16:06:02.266Z,99639.34
2023-04-12T16:08:28.730Z,99637.69
2023-04-12T16:10:56.100Z,99637.50
2023-04-12T16:13:23.347Z,99640.47
2023-04-12T16:15:50.733Z,99635.81
2023-04-12T16:18:17.282Z,99637.41
2023-04-12T16:20:44.675Z,99639.72
2023-04-12T16:23:11.133Z,99636.59
2023-04-12T16:25:37.585Z,99638.94
2023-04-12T16:28:04.061Z,99637.34
2023-04-12T16:30:30.597Z,99633.63
2023-04-12T16:32:58.135Z,99639.50
2023-04-12T16:35:25.656Z,99634.50
2023-04-12T16:37:53.109Z,99636.41
2023-04-12T16:40:20.513Z,99636.72
2023-04-12T16:42:47.014Z,99642.03
2023-04-12T16:45:14.529Z,99641.19
2023-04-12T16:47:41.115Z,99649.16
2023-04-12T16:50:08.604Z,99647.94
2023-04-12T16:52:35.079Z,99650.00
2023-04-12T16:55:01.569Z,99642.88
2023-04-12T16:57:28.076Z,99652.13
2023-04-12T16:59:55.517Z,99654.09
2023-04-12T17:02:23.187Z,99641.53
2023-04-12T17:04:50.649Z,99642.00
2023-04-12T17:07:18.060Z,99651.06
2023-04-12T17:09:45.455Z,99649.06
2023-04-12T17:12:11.946Z,99650.66
2023-04-12T17:14:39.333Z,99665.22
2023-04-12T17:17:06.706Z,99662.44
2023-04-12T17:19:34.400Z,99656.44
2023-04-12T17:22:01.021Z,99662.44
2023-04-12T17:24:27.545Z,99668.03
2023-04-12T17:26:54.061Z,99667.63
2023-04-12T17:29:20.542Z,99669.28
2023-04-12T17:31:47.111Z,99676.72
2023-04-12T17:36:58.961Z,99676.78
2023-04-12T17:39:26.316Z,99669.47
2023-04-12T17:41:52.741Z,99673.75
2023-04-12T17:44:19.181Z,99668.13
2023-04-12T17:46:46.449Z,99678.13
2023-04-12T17:52:08.248Z,99674.84
2023-04-12T17:54:36.566Z,99675.63
2023-04-12T17:57:03.846Z,99679.19
2023-04-12T17:59:30.351Z,99675.22
2023-04-12T18:01:56.858Z,99674.44
2023-04-12T18:07:20.197Z,99681.44
2023-04-12T18:09:47.614Z,99686.97
2023-04-12T18:12:14.999Z,99682.16
2023-04-12T18:14:41.642Z,99678.97
2023-04-12T18:17:08.136Z,99695.25
2023-04-12T18:22:20.201Z,99690.44
2023-04-12T18:24:46.639Z,99697.16
2023-04-12T18:27:14.074Z,99697.97
2023-04-12T18:29:41.466Z,99698.72
2023-04-12T18:32:08.864Z,99692.75
2023-04-12T18:37:21.220Z,99699.88
2023-04-12T18:39:47.726Z,99697.88
2023-04-12T18:42:14.194Z,99701.09
2023-04-12T18:44:41.471Z,99703.09
2023-04-12T18:47:09.860Z,99699.50
2023-04-12T18:52:30.743Z,99703.44
2023-04-12T18:54:57.281Z,99703.03
2023-04-12T18:57:24.708Z,99698.25
2023-04-12T18:59:52.306Z,99702.16
2023-04-12T19:02:19.788Z,99700.19
2023-04-12T19:07:31.092Z,99697.81
2023-04-12T19:09:58.429Z,99699.38
2023-04-12T19:12:25.771Z,99696.59
2023-04-12T19:16:49.883Z,99687.22
2023-04-12T19:19:17.212Z,99686.09
2023-04-12T19:21:43.694Z,99686.16
2023-04-12T19:24:11.997Z,99686.16
2023-04-12T19:26:38.623Z,99683.81
2023-04-12T19:29:05.888Z,99679.44
2023-04-12T19:31:35.151Z,99676.25
2023-04-12T19:34:02.503Z,99676.66
2023-04-12T19:36:31.716Z,99679.44
2023-04-12T19:38:58.473Z,99677.88
2023-04-12T19:41:26.039Z,99670.34
2023-04-12T19:43:52.512Z,99668.00
2023-04-12T19:46:19.097Z,99667.56
2023-04-12T19:48:46.585Z,99660.00
2023-04-12T19:51:13.982Z,99660.38
2023-04-12T19:53:40.403Z,99649.28
2023-04-12T19:56:06.874Z,99651.66
2023-04-12T19:58:33.306Z,99647.72
2023-04-12T20:01:00.810Z,99653.28
2023-04-12T20:03:27.374Z,99648.88
2023-04-12T20:05:53.850Z,99654.44
2023-04-12T20:08:20.326Z,99650.50
2023-04-12T20:10:47.870Z,99650.06
2023-04-12T20:13:14.363Z,99651.25
2023-04-12T20:15:40.805Z,99642.13
2023-04-12T20:18:07.281Z,99649.69
2023-04-12T20:20:34.570Z,99651.25
2023-04-12T20:23:01.894Z,99649.69
2023-04-12T20:25:29.306Z,99640.13
2023-04-12T20:27:55.944Z,99638.16
2023-04-12T20:30:22.401Z,99641.72
2023-04-12T20:32:48.937Z,99635.66
2023-04-12T20:35:15.433Z,99634.25
2023-04-12T20:37:42.799Z,99634.03
2023-04-12T20:40:10.201Z,99634.94
2023-04-12T20:42:36.638Z,99633.16
2023-04-12T20:45:03.286Z,99633.69
2023-04-12T20:47:30.703Z,99626.97
2023-04-12T20:49:58.112Z,99631.81
2023-04-12T20:52:25.376Z,99632.25
2023-04-12T20:54:52.770Z,99627.53
2023-04-12T20:57:19.222Z,99626.31
2023-04-12T20:59:46.583Z,99622.03
2023-04-12T21:02:13.097Z,99624.88
2023-04-12T21:04:40.679Z,99623.78
2023-04-12T21:07:07.213Z,99619.84
2023-04-12T21:09:34.590Z,99620.66
2023-04-12T21:12:03.685Z,99621.06
2023-04-12T21:14:31.150Z,99617.53
2023-04-12T21:16:58.510Z,99615.50
2023-04-12T21:19:24.938Z,99616.66
2023-04-12T21:21:51.412Z,99615.50
2023-04-12T21:24:17.850Z,99614.72
2023-04-12T21:26:44.329Z,99613.94
2023-04-12T21:29:11.802Z,99616.00
2023-04-12T21:31:40.602Z,99616.41
2023-04-12T21:34:07.975Z,99618.41
2023-04-12T21:36:34.402Z,99614.81
2023-04-12T21:39:01.927Z,99620.38
2023-04-12T21:41:28.520Z,99614.09
2023-04-12T21:43:55.992Z,99614.47
2023-04-12T21:46:22.552Z,99618.84
2023-04-12T21:48:49.046Z,99625.94
2023-04-12T21:51:15.539Z,99621.59
2023-04-12T21:53:42.041Z,99620.81
2023-04-12T21:56:09.453Z,99613.28
2023-04-12T21:58:35.938Z,99615.66
2023-04-12T22:01:02.615Z,99613.75
2023-04-12T22:03:29.284Z,99608.56
2023-04-12T22:06:04.191Z,99604.59
2023-04-12T22:08:32.424Z,99609.81
2023-04-12T22:10:59.829Z,99599.09
2023-04-12T22:13:26.265Z,99601.94
2023-04-12T22:15:53.670Z,99599.59
2023-04-12T22:18:20.180Z,99596.03
2023-04-12T22:20:47.564Z,99597.22
2023-04-12T22:23:14.958Z,99588.06
2023-04-12T22:25:41.455Z,99593.63
2023-04-12T22:28:07.909Z,99587.38
2023-04-12T22:30:35.282Z,99591.28
2023-04-12T22:33:01.782Z,99589.31
2023-04-12T22:35:28.228Z,99585.38
2023-04-12T22:37:55.606Z,99583.81
2023-04-12T22:40:22.998Z,99578.66
2023-04-12T22:42:49.460Z,99575.91
2023-04-12T22:45:15.950Z,99568.81
2023-04-12T22:47:42.476Z,99563.19
2023-04-12T22:50:09.084Z,99568.81
2023-04-12T22:52:35.528Z,99552.97
2023-04-12T22:55:02.183Z,99561.69
2023-04-12T22:57:29.531Z,99550.56
2023-04-12T22:59:56.034Z,99553.78
2023-04-12T23:02:23.488Z,99556.56
2023-04-12T23:04:50.909Z,99545.06
2023-04-12T23:07:18.297Z,99547.44
2023-04-12T23:09:44.777Z,99552.25
2023-04-12T23:12:12.070Z,99542.78
2023-04-12T23:14:39.424Z,99548.72
2023-04-12T23:17:05.871Z,99532.47
2023-04-12T23:19:32.271Z,99531.66
2023-04-12T23:21:59.688Z,99538.06
2023-04-12T23:24:26.154Z,99529.75
2023-04-12T23:26:52.613Z,99526.16
2023-04-12T23:29:19.964Z,99526.56
2023-04-12T23:31:47.331Z,99525.38
2023-04-12T23:34:14.692Z,99518.22
2023-04-12T23:36:41.120Z,99513.84
2023-04-12T23:39:07.574Z,99513.56
2023-04-12T23:41:34.927Z,99515.53
2023-04-12T23:44:02.265Z,99512.69
2023-04-12T23:46:29.744Z,99511.97
2023-04-12T23:48:57.208Z,99500.03
2023-04-12T23:51:23.623Z,99499.25
2023-04-12T23:53:50.198Z,99494.13
2023-04-12T23:56:17.643Z,99500.50
2023-04-12T23:58:44.045Z,99501.72
